createdAt,value
2022-09-01T00:00:29.970Z,16.80
2022-09-01T00:02:58.167Z,16.80
2022-09-01T00:05:26.853Z,16.70
2022-09-01T00:07:54.939Z,16.70
2022-09-01T00:10:23.247Z,16.70
2022-09-01T00:12:51.349Z,16.70
2022-09-01T00:15:19.359Z,16.70
2022-09-01T00:17:48.785Z,16.70
2022-09-01T00:20:20.235Z,16.70
2022-09-01T00:22:49.133Z,16.70
2022-09-01T00:25:18.835Z,16.70
2022-09-01T00:27:47.762Z,16.60
2022-09-01T00:30:16.334Z,16.50
2022-09-01T00:32:46.720Z,16.60
2022-09-01T00:35:18.356Z,16.60
2022-09-01T00:37:46.526Z,16.60
2022-09-01T00:40:17.441Z,16.60
2022-09-01T00:42:46.151Z,16.60
2022-09-01T00:45:14.455Z,16.50
2022-09-01T00:47:43.054Z,16.60
2022-09-01T00:50:13.598Z,16.50
2022-09-01T00:52:46.789Z,16.50
2022-09-01T00:55:18.827Z,16.60
2022-09-01T00:57:47.137Z,16.60
2022-09-01T01:00:18.781Z,16.70
2022-09-01T01:02:48.617Z,16.50
2022-09-01T01:05:17.377Z,16.50
2022-09-01T01:07:47.600Z,16.50
2022-09-01T01:10:17.716Z,16.40
2022-09-01T01:12:47.120Z,16.40
2022-09-01T01:15:17.189Z,16.40
2022-09-01T01:17:45.809Z,16.40
2022-09-01T01:20:35.671Z,16.40
2022-09-01T01:23:11.208Z,16.40
2022-09-01T01:25:45.205Z,16.40
2022-09-01T01:28:18.421Z,16.40
2022-09-01T01:30:52.828Z,16.40
2022-09-01T01:33:23.430Z,16.40
2022-09-01T01:35:55.307Z,16.30
2022-09-01T01:38:23.341Z,16.30
2022-09-01T01:40:54.842Z,16.20
2022-09-01T01:43:26.356Z,16.20
2022-09-01T01:45:59.175Z,16.20
2022-09-01T01:48:34.635Z,16.10
2022-09-01T01:51:04.585Z,16.10
2022-09-01T01:53:33.496Z,16.10
2022-09-01T01:56:03.108Z,16.00
2022-09-01T01:58:35.899Z,16.00
2022-09-01T02:01:10.790Z,16.00
2022-09-01T02:03:39.645Z,15.90
2022-09-01T02:06:09.740Z,15.90
2022-09-01T02:08:40.795Z,15.90
2022-09-01T02:11:13.186Z,15.90
2022-09-01T02:13:41.404Z,15.90
2022-09-01T02:16:12.810Z,15.90
2022-09-01T02:18:44.332Z,15.90
2022-09-01T02:21:18.518Z,15.90
2022-09-01T02:23:49.628Z,15.90
2022-09-01T02:26:21.252Z,15.90
2022-09-01T02:28:54.798Z,15.80
2022-09-01T02:31:27.963Z,15.80
2022-09-01T02:33:56.984Z,15.70
2022-09-01T02:36:25.856Z,15.70
2022-09-01T02:38:56.867Z,15.70
2022-09-01T02:41:32.203Z,15.70
2022-09-01T02:44:02.315Z,15.60
2022-09-01T02:46:30.874Z,15.60
2022-09-01T02:49:00.778Z,15.50
2022-09-01T02:51:29.551Z,15.50
2022-09-01T02:53:58.592Z,15.50
2022-09-01T02:56:28.147Z,15.50
2022-09-01T02:58:57.314Z,15.40
2022-09-01T03:01:29.205Z,15.40
2022-09-01T03:03:59.726Z,15.40
2022-09-01T03:06:28.494Z,15.30
2022-09-01T03:09:00.202Z,15.20
2022-09-01T03:11:31.790Z,15.10
2022-09-01T03:14:00.617Z,15.00
2022-09-01T03:16:31.430Z,14.90
2022-09-01T03:19:00.040Z,14.90
2022-09-01T03:21:28.226Z,14.80
2022-09-01T03:23:58.197Z,14.80
2022-09-01T03:26:26.771Z,14.70
2022-09-01T03:28:58.194Z,14.60
2022-09-01T03:31:30.947Z,14.60
2022-09-01T03:34:03.250Z,14.60
2022-09-01T03:36:34.521Z,14.60
2022-09-01T03:39:02.832Z,14.50
2022-09-01T03:41:32.771Z,14.50
2022-09-01T03:44:02.207Z,14.50
2022-09-01T03:46:36.874Z,14.40
2022-09-01T03:49:08.108Z,14.40
2022-09-01T03:51:39.177Z,14.40
2022-09-01T03:54:08.686Z,14.40
2022-09-01T03:56:41.150Z,14.30
2022-09-01T03:59:16.964Z,14.30
2022-09-01T04:01:46.966Z,14.20
2022-09-01T04:04:16.610Z,14.20
2022-09-01T04:06:46.857Z,14.20
2022-09-01T04:09:16.123Z,14.10
2022-09-01T04:11:46.947Z,14.10
2022-09-01T04:14:17.998Z,14.00
2022-09-01T04:17:05.768Z,14.00
2022-09-01T04:19:39.201Z,14.10
2022-09-01T04:22:14.369Z,14.00
2022-09-01T04:24:45.776Z,14.00
2022-09-01T04:27:15.727Z,14.00
2022-09-01T04:29:46.090Z,13.90
2022-09-01T04:32:15.711Z,13.90
2022-09-01T04:34:46.790Z,13.90
2022-09-01T04:37:19.047Z,13.90
2022-09-01T04:39:55.707Z,13.90
2022-09-01T04:42:27.135Z,14.00
2022-09-01T04:44:59.900Z,14.00
2022-09-01T04:47:35.901Z,14.00
2022-09-01T04:50:13.889Z,14.00
2022-09-01T04:52:45.890Z,14.00
2022-09-01T04:55:30.336Z,14.00
2022-09-01T04:58:01.779Z,14.00
2022-09-01T05:00:32.740Z,14.10
2022-09-01T05:03:04.466Z,14.10
2022-09-01T05:05:53.989Z,14.20
2022-09-01T05:08:24.314Z,14.20
2022-09-01T05:10:56.601Z,14.30
2022-09-01T05:13:40.257Z,14.30
2022-09-01T05:16:15.066Z,14.30
2022-09-01T05:18:47.589Z,14.30
2022-09-01T05:21:18.639Z,14.30
2022-09-01T05:23:50.437Z,14.40
2022-09-01T05:26:21.699Z,14.50
2022-09-01T05:28:53.744Z,14.50
2022-09-01T05:31:24.232Z,14.50
2022-09-01T05:33:52.903Z,14.60
2022-09-01T05:36:24.127Z,14.60
2022-09-01T05:38:54.712Z,14.60
2022-09-01T05:41:23.964Z,14.70
2022-09-01T05:43:57.761Z,14.70
2022-09-01T05:46:30.192Z,14.80
2022-09-01T05:48:59.569Z,14.90
2022-09-01T05:51:46.207Z,14.90
2022-09-01T05:54:18.998Z,14.90
2022-09-01T05:56:47.300Z,14.90
2022-09-01T05:59:24.374Z,15.00
2022-09-01T06:01:57.665Z,15.00
2022-09-01T06:04:27.758Z,15.10
2022-09-01T06:07:07.771Z,15.10
2022-09-01T06:09:39.503Z,15.20
2022-09-01T06:12:17.897Z,15.30
2022-09-01T06:14:47.016Z,15.30
2022-09-01T06:17:22.045Z,15.40
2022-09-01T06:19:52.573Z,15.50
2022-09-01T06:22:21.019Z,15.50
2022-09-01T06:24:56.609Z,15.60
2022-09-01T06:27:29.415Z,15.70
2022-09-01T06:29:58.261Z,15.80
2022-09-01T06:32:28.794Z,15.90
2022-09-01T06:34:58.113Z,16.00
2022-09-01T06:37:26.832Z,16.00
2022-09-01T06:39:58.803Z,15.90
2022-09-01T06:42:28.262Z,15.80
2022-09-01T06:45:00.473Z,15.90
2022-09-01T06:47:31.043Z,16.00
2022-09-01T06:50:00.711Z,16.10
2022-09-01T06:53:32.073Z,16.30
2022-09-01T06:55:18.593Z,16.40
2022-09-01T07:00:41.863Z,16.60
2022-09-01T07:03:14.622Z,16.90
2022-09-01T07:06:01.299Z,17.00
2022-09-01T07:12:24.777Z,17.30
2022-09-01T07:17:43.517Z,17.80
2022-09-01T07:20:23.487Z,18.20
2022-09-01T07:23:08.148Z,18.50
2022-09-01T07:26:00.503Z,18.90
2022-09-01T07:28:37.410Z,19.70
2022-09-01T07:39:48.624Z,25.60
2022-09-01T07:42:30.979Z,16.60
2022-09-01T07:45:58.052Z,29.80
2022-09-01T07:51:36.739Z,31.70
2022-09-01T07:54:07.540Z,29.90
2022-09-01T07:56:40.123Z,30.50
2022-09-01T07:59:12.694Z,30.30
2022-09-01T08:01:51.071Z,30.80
2022-09-01T08:04:22.887Z,29.70
2022-09-01T08:06:51.748Z,31.00
2022-09-01T08:09:37.055Z,32.80
2022-09-01T08:12:08.014Z,33.20
2022-09-01T08:14:40.904Z,34.50
2022-09-01T08:17:17.705Z,35.00
2022-09-01T08:19:59.939Z,34.10
2022-09-01T08:22:52.022Z,34.70
2022-09-01T08:25:26.952Z,33.20
2022-09-01T08:28:00.295Z,32.50
2022-09-01T08:30:30.021Z,30.40
2022-09-01T08:32:58.566Z,29.70
2022-09-01T08:35:29.437Z,30.70
2022-09-01T08:38:00.022Z,30.60
2022-09-01T08:40:30.444Z,29.70
2022-09-01T08:43:14.693Z,31.10
2022-09-01T08:45:49.670Z,33.00
2022-09-01T08:51:19.991Z,34.90
2022-09-01T08:54:07.258Z,32.30
2022-09-01T08:56:37.787Z,30.00
2022-09-01T08:59:09.626Z,28.20
2022-09-01T09:02:22.091Z,27.70
2022-09-01T09:05:01.619Z,29.80
2022-09-01T09:07:45.723Z,29.50
2022-09-01T09:10:19.266Z,28.00
2022-09-01T09:13:02.295Z,29.10
2022-09-01T09:15:40.075Z,28.10
2022-09-01T09:18:34.294Z,27.30
2022-09-01T09:21:13.473Z,28.30
2022-09-01T09:23:46.938Z,30.40
2022-09-01T09:26:16.922Z,32.40
2022-09-01T09:28:51.481Z,32.20
2022-09-01T09:31:30.438Z,31.50
2022-09-01T09:33:59.193Z,33.10
2022-09-01T09:36:33.631Z,34.60
2022-09-01T09:39:11.852Z,33.50
2022-09-01T09:41:41.413Z,31.80
2022-09-01T09:44:23.062Z,32.80
2022-09-01T09:46:51.723Z,31.30
2022-09-01T09:49:36.822Z,30.40
2022-09-01T09:52:19.463Z,31.40
2022-09-01T09:55:03.885Z,30.00
2022-09-01T09:57:35.769Z,31.90
2022-09-01T10:00:09.056Z,32.70
2022-09-01T10:02:52.315Z,30.80
2022-09-01T10:05:27.752Z,27.90
2022-09-01T10:07:58.181Z,27.50
2022-09-01T10:10:30.709Z,26.50
2022-09-01T10:13:00.595Z,26.50
2022-09-01T10:15:34.317Z,28.10
2022-09-01T10:18:29.194Z,28.20
2022-09-01T10:21:00.145Z,29.40
2022-09-01T10:23:31.665Z,31.50
2022-09-01T10:26:06.703Z,29.10
2022-09-01T10:28:49.519Z,26.90
2022-09-01T10:31:22.456Z,25.70
2022-09-01T10:33:51.078Z,25.40
2022-09-01T10:36:24.480Z,25.00
2022-09-01T10:38:58.770Z,26.30
2022-09-01T10:42:00.500Z,28.40
2022-09-01T10:44:34.063Z,29.90
2022-09-01T10:47:13.505Z,28.20
2022-09-01T10:50:09.936Z,28.90
2022-09-01T10:53:02.390Z,29.60
2022-09-01T10:55:38.314Z,31.20
2022-09-01T11:01:53.574Z,31.40
2022-09-01T11:05:01.839Z,32.10
2022-09-01T11:07:50.578Z,31.00
2022-09-01T11:10:42.941Z,29.40
2022-09-01T11:13:47.601Z,28.20
2022-09-01T11:16:51.691Z,28.70
2022-09-01T11:19:38.782Z,27.90
2022-09-01T11:22:15.748Z,27.60
2022-09-01T11:24:58.071Z,26.20
2022-09-01T11:27:58.654Z,24.80
2022-09-01T11:30:36.485Z,24.10
2022-09-01T11:33:19.498Z,24.00
2022-09-01T11:35:57.978Z,25.20
2022-09-01T11:38:28.327Z,26.10
2022-09-01T11:40:57.596Z,26.40
2022-09-01T11:43:27.512Z,25.50
2022-09-01T11:46:07.021Z,25.00
2022-09-01T11:48:37.168Z,24.50
2022-09-01T11:51:06.827Z,24.20
2022-09-01T11:53:34.939Z,23.80
2022-09-01T11:56:16.510Z,23.70
2022-09-01T11:58:44.900Z,23.60
2022-09-01T12:01:18.711Z,23.80
2022-09-01T12:03:48.504Z,23.40
2022-09-01T12:06:24.452Z,23.20
2022-09-01T12:08:56.477Z,22.70
2022-09-01T12:11:30.347Z,22.50
2022-09-01T12:14:01.297Z,22.90
2022-09-01T12:16:31.962Z,22.90
2022-09-01T12:19:00.695Z,23.50
2022-09-01T12:21:32.348Z,23.40
2022-09-01T12:24:14.525Z,22.80
2022-09-01T12:26:43.077Z,23.10
2022-09-01T12:29:13.739Z,22.80
2022-09-01T12:31:43.313Z,22.80
2022-09-01T12:34:26.800Z,22.70
2022-09-01T12:37:07.774Z,22.40
2022-09-01T12:39:37.790Z,22.50
2022-09-01T12:42:09.497Z,22.50
2022-09-01T12:44:47.631Z,22.20
2022-09-01T12:47:50.281Z,21.80
2022-09-01T12:50:46.258Z,22.10
2022-09-01T12:53:24.450Z,22.30
2022-09-01T12:56:27.100Z,22.70
2022-09-01T12:59:11.937Z,23.00
2022-09-01T13:01:45.043Z,23.40
2022-09-01T13:04:24.054Z,23.10
2022-09-01T13:06:53.169Z,23.50
2022-09-01T13:09:21.254Z,24.10
2022-09-01T13:12:06.632Z,25.10
2022-09-01T13:14:35.475Z,25.00
2022-09-01T13:17:04.201Z,24.40
2022-09-01T13:19:34.023Z,24.40
2022-09-01T13:22:02.373Z,24.10
2022-09-01T13:24:31.964Z,23.60
2022-09-01T13:29:49.379Z,23.00
2022-09-01T13:32:20.915Z,23.30
2022-09-01T13:34:53.263Z,23.40
2022-09-01T13:37:23.029Z,23.40
2022-09-01T13:39:51.749Z,23.40
2022-09-01T13:42:20.541Z,23.20
2022-09-01T13:44:52.584Z,23.10
2022-09-01T13:47:31.854Z,23.00
2022-09-01T13:50:06.984Z,22.80
2022-09-01T13:52:37.357Z,23.20
2022-09-01T13:55:06.410Z,23.40
2022-09-01T13:57:35.996Z,23.50
2022-09-01T14:00:07.933Z,23.80
2022-09-01T14:02:38.896Z,24.00
2022-09-01T14:05:09.632Z,24.10
2022-09-01T14:07:38.127Z,24.30
2022-09-01T14:10:07.221Z,24.10
2022-09-01T14:12:35.590Z,24.20
2022-09-01T14:15:13.593Z,24.30
2022-09-01T14:17:43.790Z,24.30
2022-09-01T14:20:18.171Z,24.40
2022-09-01T14:22:46.598Z,24.00
2022-09-01T14:25:15.596Z,23.90
2022-09-01T14:27:44.755Z,24.10
2022-09-01T14:30:16.962Z,24.30
2022-09-01T14:32:45.085Z,24.70
2022-09-01T14:35:15.577Z,25.00
2022-09-01T14:37:44.844Z,25.60
2022-09-01T14:40:16.842Z,26.00
2022-09-01T14:42:49.359Z,26.00
2022-09-01T14:45:19.455Z,25.60
2022-09-01T14:47:48.262Z,25.80
2022-09-01T14:50:22.778Z,26.90
2022-09-01T14:52:54.066Z,28.00
2022-09-01T14:55:23.653Z,28.90
2022-09-01T14:57:52.183Z,29.20
2022-09-01T15:00:21.291Z,27.70
2022-09-01T15:02:49.927Z,28.10
2022-09-01T15:05:19.967Z,27.80
2022-09-01T15:07:48.579Z,27.40
2022-09-01T15:10:25.169Z,26.90
2022-09-01T15:12:55.845Z,26.80
2022-09-01T15:15:24.868Z,26.10
2022-09-01T15:17:53.693Z,26.30
2022-09-01T15:20:42.472Z,26.10
2022-09-01T15:23:11.486Z,25.60
2022-09-01T15:25:39.601Z,24.40
2022-09-01T15:28:07.767Z,24.20
2022-09-01T15:30:36.979Z,24.40
2022-09-01T15:33:06.816Z,25.00
2022-09-01T15:35:36.294Z,25.80
2022-09-01T15:38:05.042Z,26.20
2022-09-01T15:40:34.752Z,26.30
2022-09-01T15:43:03.009Z,26.40
2022-09-01T15:45:31.080Z,26.30
2022-09-01T15:47:59.169Z,26.00
2022-09-01T15:50:28.361Z,25.70
2022-09-01T15:52:59.626Z,25.40
2022-09-01T15:55:30.026Z,25.10
2022-09-01T15:58:02.761Z,24.60
2022-09-01T16:00:31.302Z,25.40
2022-09-01T16:03:02.508Z,25.60
2022-09-01T16:05:30.876Z,25.30
2022-09-01T16:08:01.810Z,25.10
2022-09-01T16:10:33.596Z,25.20
2022-09-01T16:13:05.542Z,25.10
2022-09-01T16:15:35.148Z,24.80
2022-09-01T16:18:28.603Z,24.60
2022-09-01T16:21:04.443Z,24.00
2022-09-01T16:23:42.973Z,23.90
2022-09-01T16:26:12.239Z,23.60
2022-09-01T16:28:42.975Z,23.60
2022-09-01T16:31:15.776Z,23.70
2022-09-01T16:33:49.796Z,23.60
2022-09-01T16:36:32.907Z,23.20
2022-09-01T16:39:10.446Z,22.80
2022-09-01T16:41:48.251Z,22.50
2022-09-01T16:44:28.466Z,22.30
2022-09-01T16:47:05.285Z,21.90
2022-09-01T16:49:38.046Z,21.80
2022-09-01T16:52:15.347Z,21.80
2022-09-01T16:54:56.994Z,21.80
2022-09-01T16:57:33.631Z,22.00
2022-09-01T17:00:03.871Z,22.30
2022-09-01T17:02:40.670Z,22.10
2022-09-01T17:05:20.142Z,21.90
2022-09-01T17:07:53.367Z,21.60
2022-09-01T17:10:34.533Z,21.40
2022-09-01T17:13:16.476Z,21.20
2022-09-01T17:15:49.053Z,21.00
2022-09-01T17:18:22.923Z,20.90
2022-09-01T17:20:58.170Z,20.70
2022-09-01T17:23:29.214Z,20.50
2022-09-01T17:26:03.641Z,20.40
2022-09-01T17:28:37.949Z,20.30
2022-09-01T17:31:14.322Z,20.10
2022-09-01T17:33:56.910Z,20.10
2022-09-01T17:36:35.858Z,20.10
2022-09-01T17:39:14.592Z,20.00
2022-09-01T17:41:52.383Z,20.00
2022-09-01T17:44:29.858Z,19.90
2022-09-01T17:47:12.564Z,19.80
2022-09-01T17:49:50.001Z,19.70
2022-09-01T17:52:23.969Z,19.70
2022-09-01T17:54:59.803Z,19.70
2022-09-01T17:57:38.125Z,19.60
2022-09-01T18:00:09.293Z,19.60
2022-09-01T18:03:07.531Z,19.50
2022-09-01T18:05:41.016Z,19.40
2022-09-01T18:08:19.841Z,19.30
2022-09-01T18:10:54.185Z,19.30
2022-09-01T18:13:51.781Z,19.20
2022-09-01T18:16:24.378Z,19.20
2022-09-01T18:18:53.214Z,19.10
2022-09-01T18:21:24.391Z,19.10
2022-09-01T18:23:56.478Z,19.10
2022-09-01T18:26:29.696Z,19.00
2022-09-01T18:29:00.711Z,19.00
2022-09-01T18:31:53.146Z,18.90
2022-09-01T18:34:29.439Z,18.90
2022-09-01T18:37:04.552Z,18.80
2022-09-01T18:39:44.982Z,18.90
2022-09-01T18:42:24.398Z,18.80
2022-09-01T18:45:05.287Z,18.70
2022-09-01T18:47:35.464Z,18.70
2022-09-01T18:50:11.851Z,18.60
2022-09-01T18:52:57.342Z,18.60
2022-09-01T18:55:31.964Z,18.60
2022-09-01T18:58:05.505Z,18.60
2022-09-01T19:00:38.906Z,18.60
2022-09-01T19:03:17.205Z,18.50
2022-09-01T19:06:05.395Z,18.50
2022-09-01T19:08:47.176Z,18.50
2022-09-01T19:11:21.792Z,18.40
2022-09-01T19:14:00.328Z,18.30
2022-09-01T19:16:41.920Z,18.30
2022-09-01T19:19:21.767Z,18.20
2022-09-01T19:21:52.951Z,18.10
2022-09-01T19:24:29.098Z,18.10
2022-09-01T19:27:01.535Z,18.00
2022-09-01T19:29:34.166Z,17.90
2022-09-01T19:32:08.882Z,17.90
2022-09-01T19:34:40.560Z,17.80
2022-09-01T19:37:09.372Z,17.90
2022-09-01T19:39:40.186Z,17.80
2022-09-01T19:42:17.180Z,17.70
2022-09-01T19:44:53.106Z,17.70
2022-09-01T19:47:30.634Z,17.70
2022-09-01T19:50:05.804Z,17.60
2022-09-01T19:52:39.786Z,17.60
2022-09-01T19:55:13.534Z,17.60
2022-09-01T19:57:47.625Z,17.60
2022-09-01T20:00:18.475Z,17.60
2022-09-01T20:02:54.732Z,17.50
2022-09-01T20:05:31.274Z,17.50
2022-09-01T20:08:03.609Z,17.40
2022-09-01T20:10:56.660Z,17.50
2022-09-01T20:13:48.799Z,17.40
2022-09-01T20:16:26.867Z,17.40
2022-09-01T20:19:03.142Z,17.30
2022-09-01T20:21:31.294Z,17.30
2022-09-01T20:24:04.613Z,17.20
2022-09-01T20:26:39.949Z,17.30
2022-09-01T20:29:13.570Z,17.30
2022-09-01T20:31:46.947Z,17.20
2022-09-01T20:34:25.318Z,17.10
2022-09-01T20:36:57.116Z,17.20
2022-09-01T20:39:49.959Z,17.20
2022-09-01T20:42:23.159Z,17.10
2022-09-01T20:44:58.371Z,17.10
2022-09-01T20:47:28.965Z,17.10
2022-09-01T20:50:01.419Z,17.10
2022-09-01T20:52:39.565Z,17.10
2022-09-01T20:55:13.734Z,17.00
2022-09-01T20:57:50.369Z,16.90
2022-09-01T21:00:23.114Z,16.90
2022-09-01T21:02:59.694Z,16.90
2022-09-01T21:05:41.537Z,16.80
2022-09-01T21:08:24.840Z,16.80
2022-09-01T21:10:59.033Z,16.80
2022-09-01T21:13:43.070Z,16.70
2022-09-01T21:16:18.072Z,16.70
2022-09-01T21:18:56.418Z,16.70
2022-09-01T21:21:35.967Z,16.70
2022-09-01T21:24:04.561Z,16.60
2022-09-01T21:26:36.459Z,16.60
2022-09-01T21:29:15.131Z,16.60
2022-09-01T21:31:43.398Z,16.60
2022-09-01T21:34:16.254Z,16.60
2022-09-01T21:36:46.362Z,16.50
2022-09-01T21:39:14.701Z,16.50
2022-09-01T21:41:42.842Z,16.50
2022-09-01T21:44:11.026Z,16.50
2022-09-01T21:46:39.415Z,16.50
2022-09-01T21:49:07.480Z,16.50
2022-09-01T21:51:35.513Z,16.40
2022-09-01T21:54:05.085Z,16.50
2022-09-01T21:56:33.146Z,16.50
2022-09-01T21:59:01.229Z,16.30
2022-09-01T22:01:31.395Z,16.30
2022-09-01T22:03:59.976Z,16.30
2022-09-01T22:06:28.683Z,16.30
2022-09-01T22:08:56.737Z,16.30
2022-09-01T22:11:26.179Z,16.30
2022-09-01T22:13:54.116Z,16.20
2022-09-01T22:16:23.013Z,16.20
2022-09-01T22:18:51.110Z,16.10
2022-09-01T22:21:20.779Z,16.10
2022-09-01T22:23:48.905Z,16.10
2022-09-01T22:26:22.228Z,16.00
2022-09-01T22:28:52.431Z,16.00
2022-09-01T22:31:23.386Z,16.00
2022-09-01T22:33:51.815Z,16.00
2022-09-01T22:36:22.309Z,15.90
2022-09-01T22:38:50.828Z,16.00
2022-09-01T22:41:20.141Z,15.90
2022-09-01T22:43:48.676Z,15.90
2022-09-01T22:46:21.284Z,15.90
2022-09-01T22:48:50.577Z,15.80
2022-09-01T22:51:19.309Z,15.80
2022-09-01T22:53:47.975Z,15.80
2022-09-01T22:56:21.816Z,15.70
2022-09-01T22:58:50.946Z,15.80
2022-09-01T23:01:24.606Z,15.70
2022-09-01T23:03:53.743Z,15.60
2022-09-01T23:06:27.422Z,15.60
2022-09-01T23:08:56.655Z,15.60
2022-09-01T23:11:25.547Z,15.60
2022-09-01T23:13:53.886Z,15.60
2022-09-01T23:16:24.810Z,15.50
2022-09-01T23:18:54.646Z,15.40
2022-09-01T23:21:25.887Z,15.50
2022-09-01T23:23:58.355Z,15.50
2022-09-01T23:26:27.956Z,15.40
2022-09-01T23:28:57.007Z,15.40
2022-09-01T23:31:28.745Z,15.50
2022-09-01T23:33:57.292Z,15.50
2022-09-01T23:36:28.041Z,15.50
2022-09-01T23:38:56.428Z,15.40
2022-09-01T23:41:29.301Z,15.40
2022-09-01T23:43:58.403Z,15.40
2022-09-01T23:46:30.153Z,15.40
2022-09-01T23:48:58.524Z,15.40
2022-09-01T23:51:27.150Z,15.40
2022-09-01T23:53:55.237Z,15.40
2022-09-01T23:56:26.220Z,15.30
2022-09-01T23:58:54.518Z,15.40
